createdAt,value
2022-12-08T00:01:23.421Z,91.47
2022-12-08T00:03:52.068Z,91.57
2022-12-08T00:06:44.428Z,91.86
2022-12-08T00:09:23.203Z,92.08
2022-12-08T00:11:56.996Z,91.75
2022-12-08T00:14:27.519Z,92.00
2022-12-08T00:16:55.929Z,91.69
2022-12-08T00:19:24.805Z,91.63
2022-12-08T00:21:55.150Z,92.08
2022-12-08T00:24:24.759Z,92.03
2022-12-08T00:26:52.789Z,92.18
2022-12-08T00:29:20.885Z,92.29
2022-12-08T00:31:48.729Z,92.33
2022-12-08T00:34:17.267Z,92.06
2022-12-08T00:36:45.437Z,92.10
2022-12-08T00:39:16.236Z,91.95
2022-12-08T00:42:01.950Z,91.87
2022-12-08T00:44:29.705Z,92.07
2022-12-08T00:46:57.518Z,92.24
2022-12-08T00:49:25.508Z,92.14
2022-12-08T00:51:53.347Z,92.31
2022-12-08T00:54:23.923Z,92.00
2022-12-08T00:56:51.789Z,91.72
2022-12-08T00:59:19.854Z,91.65
2022-12-08T01:01:48.803Z,91.83
2022-12-08T01:04:19.144Z,92.05
2022-12-08T01:06:47.263Z,91.75
2022-12-08T01:09:16.271Z,91.98
2022-12-08T01:11:46.046Z,91.78
2022-12-08T01:14:14.603Z,91.73
2022-12-08T01:16:42.799Z,91.52
2022-12-08T01:19:12.009Z,91.54
2022-12-08T01:21:39.975Z,91.24
2022-12-08T01:24:08.591Z,91.29
2022-12-08T01:26:36.350Z,91.67
2022-12-08T01:29:05.467Z,91.58
2022-12-08T01:31:33.267Z,91.44
2022-12-08T01:34:00.998Z,91.23
2022-12-08T01:36:30.880Z,91.24
2022-12-08T01:39:02.771Z,91.30
2022-12-08T01:41:32.466Z,91.42
2022-12-08T01:44:01.821Z,91.53
2022-12-08T01:46:31.607Z,91.22
2022-12-08T01:49:04.529Z,91.37
2022-12-08T01:51:35.748Z,91.40
2022-12-08T01:54:06.650Z,91.43
2022-12-08T01:56:40.320Z,91.25
2022-12-08T01:59:11.419Z,91.48
2022-12-08T02:01:40.528Z,91.57
2022-12-08T02:04:08.411Z,91.66
2022-12-08T02:06:39.780Z,91.65
2022-12-08T02:09:08.732Z,91.83
2022-12-08T02:11:36.562Z,92.05
2022-12-08T02:14:08.425Z,92.04
2022-12-08T02:16:44.007Z,91.86
2022-12-08T02:19:46.707Z,91.96
2022-12-08T02:22:19.850Z,91.85
2022-12-08T02:24:53.659Z,91.66
2022-12-08T02:27:33.818Z,92.09
2022-12-08T02:30:22.073Z,92.00
2022-12-08T02:33:34.663Z,91.63
2022-12-08T02:36:07.982Z,91.79
2022-12-08T02:38:48.626Z,92.39
2022-12-08T02:41:27.190Z,92.08
2022-12-08T02:43:59.632Z,92.15
2022-12-08T02:46:32.854Z,92.05
2022-12-08T02:49:01.451Z,92.64
2022-12-08T02:51:30.536Z,92.69
2022-12-08T02:53:58.650Z,92.78
2022-12-08T02:56:47.172Z,92.69
2022-12-08T02:59:26.494Z,92.81
2022-12-08T03:02:06.788Z,92.90
2022-12-08T03:04:43.020Z,93.16
2022-12-08T03:07:16.040Z,92.89
2022-12-08T03:09:49.698Z,93.01
2022-12-08T03:12:21.708Z,93.04
2022-12-08T03:14:54.594Z,93.09
2022-12-08T03:17:27.048Z,92.67
2022-12-08T03:19:55.917Z,93.09
2022-12-08T03:22:28.502Z,94.45
2022-12-08T03:24:57.708Z,93.16
2022-12-08T03:27:28.656Z,92.64
2022-12-08T03:29:58.633Z,92.96
2022-12-08T03:32:31.634Z,92.06
2022-12-08T03:35:02.207Z,93.62
2022-12-08T03:37:31.407Z,93.04
2022-12-08T03:39:59.294Z,91.83
2022-12-08T03:42:27.085Z,92.48
2022-12-08T03:44:54.848Z,92.08
2022-12-08T03:47:22.608Z,91.19
2022-12-08T03:49:50.436Z,90.91
2022-12-08T03:52:18.186Z,92.33
2022-12-08T03:54:47.291Z,91.73
2022-12-08T03:57:15.220Z,91.35
2022-12-08T03:59:42.958Z,91.98
2022-12-08T04:02:10.765Z,90.85
2022-12-08T04:04:38.521Z,92.45
2022-12-08T04:07:06.242Z,90.63
2022-12-08T04:09:33.991Z,92.30
2022-12-08T04:12:03.065Z,91.85
2022-12-08T04:14:30.799Z,91.05
2022-12-08T04:16:58.621Z,91.36
2022-12-08T04:19:26.433Z,91.71
2022-12-08T04:21:54.353Z,92.12
2022-12-08T04:24:22.112Z,92.03
2022-12-08T04:26:50.656Z,91.39
2022-12-08T04:29:19.868Z,91.62
2022-12-08T04:31:47.619Z,92.16
2022-12-08T04:34:15.416Z,91.01
2022-12-08T04:36:43.230Z,92.55
2022-12-08T04:39:10.993Z,92.43
2022-12-08T04:41:38.733Z,91.89
2022-12-08T04:44:06.484Z,90.75
2022-12-08T04:46:40.201Z,90.45
2022-12-08T04:49:10.843Z,91.17
2022-12-08T04:51:38.685Z,91.71
2022-12-08T04:54:06.655Z,90.20
2022-12-08T04:56:34.398Z,91.28
2022-12-08T04:59:02.139Z,92.36
2022-12-08T05:01:30.013Z,91.49
2022-12-08T05:03:59.158Z,90.94
2022-12-08T05:06:26.903Z,91.86
2022-12-08T05:08:54.611Z,90.84
2022-12-08T05:11:22.376Z,91.51
2022-12-08T05:13:50.127Z,90.84
2022-12-08T05:16:17.905Z,91.81
2022-12-08T05:18:45.867Z,90.89
2022-12-08T05:21:14.968Z,92.29
2022-12-08T05:23:42.764Z,90.80
2022-12-08T05:26:10.612Z,90.92
2022-12-08T05:28:43.049Z,91.38
2022-12-08T05:31:11.982Z,91.38
2022-12-08T05:33:39.829Z,91.63
2022-12-08T05:36:08.162Z,91.33
2022-12-08T05:38:37.255Z,90.75
2022-12-08T05:41:05.106Z,91.81
2022-12-08T05:43:32.833Z,91.77
2022-12-08T05:46:00.652Z,90.98
2022-12-08T05:48:28.963Z,91.14
2022-12-08T05:50:56.980Z,91.47
2022-12-08T05:53:24.720Z,90.49
2022-12-08T05:55:54.336Z,90.90
2022-12-08T05:58:23.934Z,91.18
2022-12-08T06:00:52.154Z,91.15
2022-12-08T06:03:20.540Z,90.62
2022-12-08T06:05:49.028Z,90.17
2022-12-08T06:08:17.162Z,91.36
2022-12-08T06:10:45.887Z,90.72
2022-12-08T06:13:15.123Z,90.22
2022-12-08T06:15:43.239Z,90.64
2022-12-08T06:18:11.724Z,90.91
2022-12-08T06:20:39.448Z,90.48
2022-12-08T06:23:07.450Z,90.76
2022-12-08T06:25:35.268Z,91.16
2022-12-08T06:28:02.994Z,90.02
2022-12-08T06:30:32.137Z,90.17
2022-12-08T06:33:00.093Z,90.43
2022-12-08T06:35:27.871Z,90.24
2022-12-08T06:37:55.663Z,89.44
2022-12-08T06:40:23.398Z,90.24
2022-12-08T06:42:51.107Z,89.59
2022-12-08T06:45:19.478Z,89.63
2022-12-08T06:47:48.600Z,90.30
2022-12-08T06:50:16.543Z,90.62
2022-12-08T06:52:57.043Z,90.29
2022-12-08T06:55:58.717Z,90.57
2022-12-08T06:58:16.597Z,91.12
2022-12-08T07:00:44.764Z,91.97
2022-12-08T07:03:14.699Z,90.02
2022-12-08T07:05:42.502Z,89.76
2022-12-08T07:08:10.743Z,90.56
2022-12-08T07:10:38.860Z,91.22
2022-12-08T07:13:06.724Z,90.08
2022-12-08T07:15:34.498Z,89.85
2022-12-08T07:18:02.293Z,90.01
2022-12-08T07:20:31.490Z,91.02
2022-12-08T07:22:59.373Z,90.87
2022-12-08T07:25:27.539Z,90.81
2022-12-08T07:27:55.336Z,91.60
2022-12-08T07:30:23.091Z,90.72
2022-12-08T07:32:50.857Z,90.86
2022-12-08T07:35:24.962Z,89.37
2022-12-08T07:37:54.082Z,90.58
2022-12-08T07:40:21.856Z,91.14
2022-12-08T07:42:49.599Z,91.64
2022-12-08T07:45:17.443Z,92.23
2022-12-08T07:47:45.142Z,92.93
2022-12-08T07:50:12.890Z,93.03
2022-12-08T07:52:40.658Z,91.93
2022-12-08T07:55:12.465Z,92.28
2022-12-08T07:57:40.212Z,93.02
2022-12-08T08:00:09.238Z,92.68
2022-12-08T08:02:40.728Z,92.69
2022-12-08T08:05:09.810Z,91.92
2022-12-08T08:07:37.975Z,92.60
2022-12-08T08:10:07.280Z,92.79
2022-12-08T08:12:36.858Z,92.26
2022-12-08T08:15:05.230Z,91.03
2022-12-08T08:17:33.097Z,92.09
2022-12-08T08:20:02.172Z,91.65
2022-12-08T08:22:30.229Z,93.30
2022-12-08T08:24:58.016Z,92.06
2022-12-08T08:27:26.850Z,93.17
2022-12-08T08:29:55.943Z,92.00
2022-12-08T08:32:23.724Z,92.32
2022-12-08T08:34:52.406Z,91.81
2022-12-08T08:37:20.348Z,92.56
2022-12-08T08:39:48.224Z,91.69
2022-12-08T08:42:15.985Z,91.36
2022-12-08T08:44:43.775Z,91.94
2022-12-08T08:47:12.956Z,92.64
2022-12-08T08:49:40.946Z,91.85
2022-12-08T08:52:08.772Z,93.13
2022-12-08T08:54:36.585Z,92.77
2022-12-08T08:57:04.594Z,91.21
2022-12-08T08:59:32.540Z,90.78
2022-12-08T09:02:00.443Z,91.68
2022-12-08T09:04:29.744Z,90.12
2022-12-08T09:06:57.792Z,91.57
2022-12-08T09:09:25.514Z,91.30
2022-12-08T09:11:53.307Z,90.10
2022-12-08T09:14:21.104Z,90.51
2022-12-08T09:16:48.955Z,89.63
2022-12-08T09:19:16.826Z,89.48
2022-12-08T09:21:46.025Z,89.53
2022-12-08T09:24:15.874Z,89.27
2022-12-08T09:26:44.659Z,89.06
2022-12-08T09:29:13.701Z,89.13
2022-12-08T09:31:42.030Z,89.60
2022-12-08T09:34:13.853Z,89.30
2022-12-08T09:36:42.019Z,89.29
2022-12-08T09:39:11.186Z,89.39
2022-12-08T09:41:48.526Z,88.92
2022-12-08T09:44:44.100Z,89.19
2022-12-08T09:47:19.687Z,89.41
2022-12-08T09:49:53.992Z,90.25
2022-12-08T09:52:26.362Z,89.07
2022-12-08T09:54:59.950Z,89.16
2022-12-08T09:57:27.955Z,89.08
2022-12-08T09:59:59.376Z,88.42
2022-12-08T10:02:30.177Z,88.91
2022-12-08T10:04:59.476Z,89.33
2022-12-08T10:07:31.303Z,88.90
2022-12-08T10:10:07.003Z,88.86
2022-12-08T10:12:41.463Z,88.48
2022-12-08T10:15:27.486Z,88.11
2022-12-08T10:17:55.963Z,87.72
2022-12-08T10:20:25.861Z,86.97
2022-12-08T10:23:04.244Z,86.91
2022-12-08T10:25:38.056Z,86.35
2022-12-08T10:28:06.102Z,87.17
2022-12-08T10:30:33.901Z,86.82
2022-12-08T10:33:01.708Z,86.42
2022-12-08T10:35:45.803Z,86.65
2022-12-08T10:38:23.294Z,86.87
2022-12-08T10:40:54.249Z,86.90
2022-12-08T10:43:25.017Z,86.97
2022-12-08T10:45:53.442Z,86.97
2022-12-08T10:48:23.491Z,86.79
2022-12-08T10:50:55.845Z,86.17
2022-12-08T10:53:25.408Z,85.75
2022-12-08T10:56:07.702Z,85.88
2022-12-08T10:58:40.338Z,86.02
2022-12-08T11:01:13.111Z,86.15
2022-12-08T11:03:46.944Z,85.24
2022-12-08T11:06:18.616Z,84.61
2022-12-08T11:08:50.351Z,85.31
2022-12-08T11:11:24.445Z,84.75
2022-12-08T11:13:57.330Z,84.43
2022-12-08T11:16:25.259Z,85.13
2022-12-08T11:18:58.441Z,84.52
2022-12-08T11:21:36.743Z,84.32
2022-12-08T11:24:23.767Z,84.81
2022-12-08T11:26:56.162Z,84.29
2022-12-08T11:29:24.255Z,83.77
2022-12-08T11:31:57.560Z,83.99
2022-12-08T11:34:33.105Z,83.99
2022-12-08T11:37:01.051Z,84.36
2022-12-08T11:39:35.280Z,84.62
2022-12-08T11:42:06.847Z,84.79
2022-12-08T11:44:39.861Z,84.39
2022-12-08T11:47:16.116Z,84.37
2022-12-08T11:52:25.174Z,84.15
2022-12-08T11:54:58.633Z,84.37
2022-12-08T11:57:30.609Z,84.94
2022-12-08T11:59:59.608Z,85.30
2022-12-08T12:02:29.941Z,84.94
2022-12-08T12:05:02.119Z,84.71
2022-12-08T12:07:56.095Z,84.98
2022-12-08T12:10:39.969Z,85.08
2022-12-08T12:13:34.462Z,85.01
2022-12-08T12:16:22.473Z,85.38
2022-12-08T12:18:53.723Z,85.19
2022-12-08T12:21:27.148Z,84.58
2022-12-08T12:23:57.481Z,84.61
2022-12-08T12:26:27.821Z,84.30
2022-12-08T12:29:01.786Z,84.73
2022-12-08T12:31:31.882Z,84.22
2022-12-08T12:34:08.425Z,83.91
2022-12-08T12:36:48.680Z,84.56
2022-12-08T12:39:19.299Z,84.64
2022-12-08T12:41:52.360Z,84.46
2022-12-08T12:44:38.378Z,84.73
2022-12-08T12:47:11.190Z,83.95
2022-12-08T12:50:14.424Z,83.67
2022-12-08T12:52:48.989Z,82.75
2022-12-08T12:55:51.979Z,82.90
2022-12-08T12:58:36.364Z,82.53
2022-12-08T13:01:45.822Z,82.36
2022-12-08T13:04:13.713Z,82.77
2022-12-08T13:06:44.911Z,82.66
2022-12-08T13:09:24.881Z,82.10
2022-12-08T13:11:56.681Z,81.84
2022-12-08T13:14:31.121Z,81.66
2022-12-08T13:17:02.269Z,81.78
2022-12-08T13:19:34.500Z,82.29
2022-12-08T13:22:02.692Z,81.77
2022-12-08T13:24:34.807Z,81.52
2022-12-08T13:27:35.984Z,80.80
2022-12-08T13:30:41.095Z,80.67
2022-12-08T13:33:18.400Z,80.45
2022-12-08T13:35:56.213Z,80.31
2022-12-08T13:38:29.108Z,79.87
2022-12-08T13:40:57.834Z,80.43
2022-12-08T13:43:51.007Z,80.42
2022-12-08T13:51:23.564Z,81.02
2022-12-08T13:58:06.339Z,80.80
2022-12-08T14:00:34.273Z,81.39
2022-12-08T14:03:03.116Z,81.60
2022-12-08T14:06:10.916Z,81.41
2022-12-08T14:08:58.390Z,81.75
2022-12-08T14:11:34.414Z,82.65
2022-12-08T14:14:04.161Z,82.79
2022-12-08T14:16:37.455Z,83.59
2022-12-08T14:19:06.963Z,83.32
2022-12-08T14:21:36.526Z,83.63
2022-12-08T14:24:04.521Z,84.01
2022-12-08T14:26:35.376Z,84.12
2022-12-08T14:29:03.421Z,84.21
2022-12-08T14:31:31.317Z,84.45
2022-12-08T14:33:59.487Z,84.52
2022-12-08T14:36:29.006Z,84.66
2022-12-08T14:38:58.283Z,84.89
2022-12-08T14:41:28.116Z,85.32
2022-12-08T14:44:02.916Z,85.74
2022-12-08T14:46:30.829Z,85.60
2022-12-08T14:48:59.696Z,85.59
2022-12-08T14:51:32.085Z,85.65
2022-12-08T14:54:03.495Z,85.39
2022-12-08T14:56:37.729Z,85.65
2022-12-08T14:59:14.264Z,85.77
2022-12-08T15:01:43.149Z,86.17
2022-12-08T15:04:18.836Z,85.98
2022-12-08T15:06:52.432Z,85.63
2022-12-08T15:09:31.562Z,85.58
2022-12-08T15:12:03.711Z,85.67
2022-12-08T15:14:33.464Z,85.63
2022-12-08T15:17:01.972Z,85.52
2022-12-08T15:19:31.660Z,84.65
2022-12-08T15:22:08.907Z,84.73
2022-12-08T15:24:38.030Z,84.34
2022-12-08T15:27:05.781Z,84.19
2022-12-08T15:29:33.590Z,84.30
2022-12-08T15:32:02.986Z,84.13
2022-12-08T15:34:31.609Z,83.95
2022-12-08T15:36:59.534Z,84.18
2022-12-08T15:39:33.461Z,84.08
2022-12-08T15:42:04.038Z,83.98
2022-12-08T15:44:32.915Z,84.19
2022-12-08T15:47:01.696Z,83.96
2022-12-08T15:49:29.610Z,83.99
2022-12-08T15:52:09.253Z,83.92
2022-12-08T15:54:38.769Z,84.00
2022-12-08T15:57:23.933Z,84.10
2022-12-08T16:00:05.187Z,84.56
2022-12-08T16:02:49.477Z,84.78
2022-12-08T16:08:23.416Z,84.75
2022-12-08T16:11:56.615Z,84.84
2022-12-08T16:14:36.853Z,84.54
2022-12-08T16:16:53.442Z,84.55
2022-12-08T16:19:21.298Z,84.21
2022-12-08T16:22:30.376Z,83.78
2022-12-08T16:24:36.903Z,84.03
2022-12-08T16:29:53.990Z,83.88
2022-12-08T16:32:22.058Z,83.80
2022-12-08T16:34:50.434Z,83.83
2022-12-08T16:37:19.068Z,83.82
2022-12-08T16:39:47.057Z,84.02
2022-12-08T16:42:33.903Z,84.20
2022-12-08T16:45:05.660Z,84.23
2022-12-08T16:47:33.751Z,84.17
2022-12-08T16:50:01.576Z,84.36
2022-12-08T16:52:29.368Z,84.90
2022-12-08T16:54:57.177Z,85.27
2022-12-08T16:57:24.972Z,85.60
2022-12-08T16:59:52.783Z,85.87
2022-12-08T17:02:21.911Z,86.12
2022-12-08T17:04:49.951Z,86.40
2022-12-08T17:07:17.846Z,86.63
2022-12-08T17:09:45.607Z,86.88
2022-12-08T17:12:13.465Z,87.05
2022-12-08T17:14:41.255Z,87.14
2022-12-08T17:17:09.163Z,87.20
2022-12-08T17:19:38.640Z,87.45
2022-12-08T17:22:06.529Z,87.55
2022-12-08T17:24:34.307Z,87.50
2022-12-08T17:27:04.191Z,87.35
2022-12-08T17:29:32.311Z,87.42
2022-12-08T17:32:00.396Z,87.80
2022-12-08T17:34:28.265Z,87.71
2022-12-08T17:36:57.524Z,87.41
2022-12-08T17:39:25.425Z,87.36
2022-12-08T17:41:53.185Z,87.21
2022-12-08T17:44:21.299Z,87.08
2022-12-08T17:46:53.022Z,86.97
2022-12-08T17:49:24.444Z,86.57
2022-12-08T17:51:54.972Z,86.58
2022-12-08T17:54:24.240Z,86.50
2022-12-08T17:56:52.432Z,86.48
2022-12-08T17:59:20.261Z,86.25
2022-12-08T18:01:48.161Z,86.21
2022-12-08T18:04:16.087Z,86.33
2022-12-08T18:06:43.859Z,86.09
2022-12-08T18:09:11.695Z,86.26
2022-12-08T18:11:41.044Z,86.37
2022-12-08T18:14:10.411Z,86.29
2022-12-08T18:16:38.814Z,86.48
2022-12-08T18:19:07.273Z,86.28
2022-12-08T18:21:35.203Z,86.37
2022-12-08T18:24:03.302Z,86.62
2022-12-08T18:26:31.690Z,86.54
2022-12-08T18:29:01.247Z,86.20
2022-12-08T18:31:29.157Z,86.23
2022-12-08T18:33:57.094Z,86.03
2022-12-08T18:36:26.436Z,86.31
2022-12-08T18:38:54.410Z,86.11
2022-12-08T18:41:25.809Z,86.29
2022-12-08T18:43:54.144Z,86.63
2022-12-08T18:46:23.581Z,86.48
2022-12-08T18:48:52.746Z,86.35
2022-12-08T18:51:23.183Z,86.24
2022-12-08T18:53:51.844Z,86.19
2022-12-08T18:56:23.000Z,86.12
2022-12-08T18:58:50.838Z,85.90
2022-12-08T19:01:19.011Z,86.11
2022-12-08T19:04:05.157Z,86.08
2022-12-08T19:06:38.235Z,85.98
2022-12-08T19:09:06.096Z,85.90
2022-12-08T19:11:33.892Z,85.87
2022-12-08T19:14:01.733Z,85.55
2022-12-08T19:16:29.667Z,85.15
2022-12-08T19:18:58.821Z,84.73
2022-12-08T19:21:26.630Z,84.86
2022-12-08T19:23:55.923Z,84.85
2022-12-08T19:26:23.588Z,84.79
2022-12-08T19:28:51.412Z,84.44
2022-12-08T19:31:19.247Z,84.55
2022-12-08T19:33:47.162Z,84.32
2022-12-08T19:36:20.094Z,84.26
2022-12-08T19:39:06.125Z,84.22
2022-12-08T19:41:51.578Z,84.32
2022-12-08T19:44:39.185Z,84.31
2022-12-08T19:47:07.174Z,84.00
2022-12-08T19:49:35.038Z,83.99
2022-12-08T19:52:04.520Z,84.11
2022-12-08T19:54:32.408Z,84.29
2022-12-08T19:57:00.233Z,84.38
2022-12-08T19:59:29.999Z,84.41
2022-12-08T20:01:58.663Z,84.11
2022-12-08T20:04:28.332Z,84.37
2022-12-08T20:06:57.491Z,84.65
2022-12-08T20:09:26.675Z,84.76
2022-12-08T20:11:55.004Z,85.13
2022-12-08T20:14:25.931Z,85.35
2022-12-08T20:16:53.799Z,85.46
2022-12-08T20:19:21.661Z,85.75
2022-12-08T20:21:49.876Z,85.70
2022-12-08T20:24:17.786Z,85.92
2022-12-08T20:26:46.972Z,85.92
2022-12-08T20:29:16.961Z,85.74
2022-12-08T20:31:44.894Z,85.73
2022-12-08T20:34:15.184Z,86.00
2022-12-08T20:36:43.155Z,85.89
2022-12-08T20:39:13.593Z,85.70
2022-12-08T20:41:41.521Z,85.68
2022-12-08T20:44:11.297Z,85.89
2022-12-08T20:46:39.357Z,85.95
2022-12-08T20:49:07.226Z,85.91
2022-12-08T20:51:35.533Z,85.69
2022-12-08T20:54:04.473Z,85.96
2022-12-08T20:56:32.854Z,86.21
2022-12-08T20:59:00.735Z,86.12
2022-12-08T21:01:30.158Z,86.18
2022-12-08T21:03:58.285Z,86.25
2022-12-08T21:06:27.861Z,86.40
2022-12-08T21:08:55.903Z,86.43
2022-12-08T21:11:23.918Z,86.55
2022-12-08T21:13:51.829Z,86.58
2022-12-08T21:16:19.946Z,86.57
2022-12-08T21:18:49.213Z,86.86
2022-12-08T21:21:17.887Z,87.02
2022-12-08T21:23:45.976Z,87.13
2022-12-08T21:26:16.239Z,87.51
2022-12-08T21:28:44.746Z,87.61
2022-12-08T21:31:15.074Z,87.86
2022-12-08T21:33:43.140Z,88.13
2022-12-08T21:36:16.158Z,88.34
2022-12-08T21:38:44.735Z,88.65
2022-12-08T21:41:15.209Z,88.93
2022-12-08T21:43:43.779Z,89.08
2022-12-08T21:46:16.536Z,89.01
2022-12-08T21:48:44.634Z,89.19
2022-12-08T21:51:13.950Z,89.37
2022-12-08T21:53:41.694Z,89.24
2022-12-08T21:56:09.941Z,89.23
2022-12-08T21:58:40.285Z,89.37
2022-12-08T22:01:09.415Z,89.59
2022-12-08T22:03:37.808Z,89.57
2022-12-08T22:06:06.761Z,89.66
2022-12-08T22:08:36.613Z,89.70
2022-12-08T22:11:05.258Z,89.60
2022-12-08T22:13:35.422Z,89.60
2022-12-08T22:16:05.939Z,89.79
2022-12-08T22:18:35.566Z,90.04
2022-12-08T22:21:04.003Z,90.10
2022-12-08T22:23:31.908Z,90.11
2022-12-08T22:26:02.520Z,90.25
2022-12-08T22:28:33.125Z,90.36
2022-12-08T22:31:01.088Z,90.48
2022-12-08T22:33:30.321Z,90.47
2022-12-08T22:35:58.529Z,90.64
2022-12-08T22:38:27.074Z,90.69
2022-12-08T22:40:55.344Z,90.80
2022-12-08T22:43:24.642Z,90.97
2022-12-08T22:45:52.527Z,91.37
2022-12-08T22:48:20.376Z,90.98
2022-12-08T22:50:48.202Z,90.77
2022-12-08T22:53:16.004Z,90.99
2022-12-08T22:55:44.744Z,90.91
2022-12-08T22:58:13.079Z,90.99
2022-12-08T23:00:42.211Z,90.80
2022-12-08T23:03:10.046Z,90.76
2022-12-08T23:05:39.960Z,90.91
2022-12-08T23:08:10.155Z,90.75
2022-12-08T23:10:37.962Z,90.81
2022-12-08T23:13:05.873Z,90.87
2022-12-08T23:15:35.014Z,90.89
2022-12-08T23:18:04.311Z,90.94
2022-12-08T23:20:32.067Z,91.36
2022-12-08T23:22:59.821Z,91.20
2022-12-08T23:25:27.667Z,91.14
2022-12-08T23:27:55.555Z,91.10
2022-12-08T23:30:25.609Z,91.01
2022-12-08T23:32:55.750Z,90.94
2022-12-08T23:35:25.089Z,91.22
2022-12-08T23:37:53.765Z,91.31
2022-12-08T23:40:21.546Z,91.23
2022-12-08T23:42:49.307Z,91.16
2022-12-08T23:45:17.181Z,91.32
2022-12-08T23:47:45.072Z,91.38
2022-12-08T23:50:13.223Z,91.20
2022-12-08T23:52:42.581Z,91.29
2022-12-08T23:55:11.217Z,91.11
2022-12-08T23:57:39.445Z,91.23
